createdAt,value
2019-02-06T07:13:04.860Z,7.17
2019-02-06T07:15:35.089Z,7.10
2019-02-06T07:18:04.482Z,8.20
2019-02-06T07:20:33.810Z,9.27
2019-02-06T07:23:03.380Z,7.30
2019-02-06T07:25:32.708Z,7.00
2019-02-06T07:28:02.000Z,7.97
2019-02-06T07:30:35.941Z,9.03
2019-02-06T07:33:05.323Z,8.60
2019-02-06T07:35:34.644Z,8.90
2019-02-06T07:38:04.009Z,10.33
2019-02-06T07:40:33.335Z,10.57
2019-02-06T07:43:02.647Z,9.47
2019-02-06T07:45:32.033Z,8.73
2019-02-06T07:48:01.382Z,10.63
2019-02-06T07:50:35.073Z,9.97
2019-02-06T07:53:04.395Z,9.10
2019-02-06T07:55:33.716Z,8.20
2019-02-06T07:58:03.096Z,9.10
2019-02-06T08:00:32.462Z,11.43
2019-02-06T08:03:01.793Z,9.40
2019-02-06T08:05:31.193Z,10.07
2019-02-06T08:08:00.542Z,8.53
2019-02-06T08:10:35.357Z,8.97
2019-02-06T08:13:05.441Z,9.13
2019-02-06T08:15:34.752Z,13.13
2019-02-06T08:18:04.230Z,11.93
2019-02-06T08:20:33.906Z,10.10
2019-02-06T08:23:03.223Z,8.33
2019-02-06T08:25:32.511Z,11.83
2019-02-06T08:28:01.828Z,12.40
2019-02-06T08:30:37.912Z,15.40
2019-02-06T08:33:07.252Z,14.30
2019-02-06T08:35:36.635Z,11.93
2019-02-06T08:38:06.008Z,13.60
2019-02-06T08:40:35.334Z,15.67
2019-02-06T08:43:04.674Z,14.40
2019-02-06T08:45:34.058Z,14.77
2019-02-06T08:48:03.343Z,16.20
2019-02-06T08:50:32.836Z,16.57
2019-02-06T08:53:02.126Z,16.03
2019-02-06T08:55:34.594Z,16.83
2019-02-06T08:58:03.891Z,16.20
2019-02-06T09:00:39.039Z,16.93
2019-02-06T09:03:10.036Z,15.50
2019-02-06T09:05:39.435Z,14.23
2019-02-06T09:08:08.808Z,14.73
2019-02-06T09:10:38.107Z,14.20
2019-02-06T09:13:07.483Z,14.83
2019-02-06T09:15:36.859Z,13.70
2019-02-06T09:18:06.462Z,13.13
2019-02-06T09:20:35.754Z,15.20
2019-02-06T09:23:05.075Z,12.63
2019-02-06T09:25:34.378Z,13.40
2019-02-06T09:28:03.762Z,13.40
2019-02-06T09:30:35.498Z,11.67
2019-02-06T09:33:05.595Z,10.50
2019-02-06T09:35:34.942Z,9.47
2019-02-06T09:38:04.232Z,10.23
2019-02-06T09:40:33.521Z,9.57
2019-02-06T09:43:02.829Z,12.83
2019-02-06T09:45:32.143Z,11.27
2019-02-06T09:48:01.479Z,11.23
2019-02-06T09:50:33.734Z,10.60
2019-02-06T09:53:03.046Z,7.47
2019-02-06T09:55:32.433Z,8.03
2019-02-06T09:58:01.785Z,9.07
2019-02-06T10:00:33.919Z,8.57
2019-02-06T10:03:03.478Z,9.20
2019-02-06T10:05:32.761Z,8.20
2019-02-06T10:08:02.160Z,8.00
2019-02-06T10:10:31.468Z,7.77
2019-02-06T10:13:00.850Z,7.73
2019-02-06T10:15:33.274Z,6.83
2019-02-06T10:18:03.079Z,7.40
2019-02-06T10:20:39.196Z,7.33
2019-02-06T10:23:08.831Z,6.97
2019-02-06T10:25:38.316Z,6.90
2019-02-06T10:28:07.629Z,7.67
2019-02-06T10:30:46.508Z,7.17
2019-02-06T10:33:18.711Z,6.80
2019-02-06T10:35:46.918Z,7.33
2019-02-06T10:38:16.198Z,6.23
2019-02-06T10:40:45.519Z,7.13
2019-02-06T10:43:14.832Z,6.17
2019-02-06T10:45:44.150Z,6.67
2019-02-06T10:48:13.481Z,6.67
2019-02-06T10:50:46.838Z,5.87
2019-02-06T10:53:16.124Z,6.63
2019-02-06T10:55:45.458Z,5.93
2019-02-06T10:58:14.778Z,6.27
2019-02-06T11:00:53.776Z,6.93
2019-02-06T11:03:23.079Z,7.17
2019-02-06T11:05:52.366Z,7.43
2019-02-06T11:08:21.686Z,6.87
2019-02-06T11:10:51.038Z,7.00
2019-02-06T11:13:20.661Z,6.43
2019-02-06T11:15:50.031Z,7.20
2019-02-06T11:18:19.332Z,6.60
2019-02-06T11:20:49.022Z,6.77
2019-02-06T11:23:18.316Z,7.53
2019-02-06T11:25:47.598Z,7.23
2019-02-06T11:28:17.120Z,6.67
2019-02-06T11:30:46.421Z,7.13
2019-02-06T11:33:15.775Z,6.37
2019-02-06T11:35:45.085Z,7.43
2019-02-06T11:38:14.441Z,7.07
2019-02-06T11:40:43.726Z,6.23
2019-02-06T11:43:13.282Z,6.13
2019-02-06T11:45:42.639Z,6.30
2019-02-06T11:48:12.094Z,6.37
2019-02-06T11:50:42.465Z,6.30
2019-02-06T11:53:15.190Z,7.23
2019-02-06T11:55:44.542Z,6.33
2019-02-06T11:58:13.832Z,6.73
2019-02-06T12:00:42.919Z,7.20
2019-02-06T12:03:12.273Z,6.73
2019-02-06T12:05:41.588Z,6.73
2019-02-06T12:08:12.640Z,7.50
2019-02-06T12:10:42.246Z,6.50
2019-02-06T12:13:11.702Z,6.97
2019-02-06T12:15:40.990Z,6.70
2019-02-06T12:18:10.705Z,6.87
2019-02-06T12:20:40.050Z,6.17
2019-02-06T12:23:09.353Z,6.47
2019-02-06T12:25:38.669Z,6.57
2019-02-06T12:28:08.231Z,5.90
2019-02-06T12:30:40.837Z,6.03
2019-02-06T12:33:10.191Z,6.50
2019-02-06T12:35:39.502Z,6.37
2019-02-06T12:38:08.790Z,6.60
2019-02-06T12:40:38.108Z,6.07
2019-02-06T12:43:10.533Z,6.50
2019-02-06T12:45:39.243Z,6.40
2019-02-06T12:48:08.909Z,6.27
2019-02-06T12:50:38.222Z,8.23
2019-02-06T12:53:07.551Z,7.33
2019-02-06T12:55:41.717Z,6.93
2019-02-06T12:58:11.171Z,7.23
2019-02-06T13:00:43.809Z,7.47
2019-02-06T13:03:13.093Z,7.03
2019-02-06T13:05:42.373Z,6.63
2019-02-06T13:08:11.678Z,6.67
2019-02-06T13:10:41.080Z,7.00
2019-02-06T13:13:10.471Z,6.63
2019-02-06T13:15:39.747Z,6.70
2019-02-06T13:18:09.066Z,6.53
2019-02-06T13:20:38.357Z,6.57
2019-02-06T13:23:07.671Z,7.43
2019-02-06T13:25:36.953Z,6.93
2019-02-06T13:28:06.443Z,6.43
2019-02-06T13:30:39.108Z,7.13
2019-02-06T13:33:11.577Z,6.50
2019-02-06T13:35:39.997Z,8.07
2019-02-06T13:38:09.294Z,7.97
2019-02-06T13:40:45.848Z,7.73
2019-02-06T13:43:09.689Z,8.20
2019-02-06T13:45:48.216Z,7.33
2019-02-06T13:48:17.573Z,7.30
2019-02-06T13:50:46.894Z,8.00
2019-02-06T13:53:16.234Z,8.00
2019-02-06T13:55:45.635Z,8.17
2019-02-06T13:58:20.298Z,7.83
2019-02-06T14:00:46.104Z,8.20
2019-02-06T14:03:15.418Z,7.57
2019-02-06T14:05:46.936Z,7.13
2019-02-06T14:08:16.492Z,7.67
2019-02-06T14:10:59.890Z,8.40
2019-02-06T14:13:17.269Z,8.37
2019-02-06T14:15:48.695Z,7.93
2019-02-06T14:19:05.598Z,8.90
2019-02-06T14:21:34.903Z,8.67
2019-02-06T14:24:26.616Z,8.43
2019-02-06T14:27:00.789Z,9.00
2019-02-06T14:30:09.390Z,8.83
2019-02-06T14:33:00.239Z,9.57
2019-02-06T14:35:55.314Z,8.97
2019-02-06T14:38:44.068Z,10.03
2019-02-06T14:41:32.999Z,9.77
2019-02-06T14:44:26.619Z,9.20
2019-02-06T14:47:12.227Z,9.30
2019-02-06T14:50:04.155Z,8.90
2019-02-06T14:52:50.165Z,10.33
2019-02-06T14:55:52.834Z,9.23
2019-02-06T14:58:38.568Z,9.30
2019-02-06T15:01:32.005Z,9.70
2019-02-06T15:04:29.490Z,9.60
2019-02-06T15:07:14.941Z,9.57
2019-02-06T15:10:18.976Z,10.23
2019-02-06T15:13:07.975Z,9.20
2019-02-06T15:15:56.146Z,9.57
2019-02-06T15:18:57.316Z,10.13
2019-02-06T15:21:55.032Z,10.07
2019-02-06T15:24:34.593Z,9.90
2019-02-06T15:27:26.505Z,9.80
2019-02-06T15:30:03.760Z,9.70
2019-02-06T15:32:40.592Z,9.47
2019-02-06T15:35:17.502Z,11.03
2019-02-06T15:38:00.224Z,10.10
2019-02-06T15:40:56.540Z,10.00
2019-02-06T15:43:57.156Z,9.70
2019-02-06T15:46:33.880Z,9.17
2019-02-06T15:49:25.867Z,10.33
2019-02-06T15:52:25.198Z,10.33
2019-02-06T15:55:22.714Z,10.00
2019-02-06T15:58:13.091Z,10.43
2019-02-06T16:01:02.091Z,9.57
2019-02-06T16:03:37.926Z,9.53
2019-02-06T16:06:27.418Z,9.77
2019-02-06T16:09:20.764Z,10.30
2019-02-06T16:12:18.788Z,9.80
2019-02-06T16:14:58.566Z,12.73
2019-02-06T16:17:38.256Z,9.30
2019-02-06T16:20:37.734Z,9.67
2019-02-06T16:23:38.490Z,11.53
2019-02-06T16:26:48.626Z,9.80
2019-02-06T16:30:00.642Z,9.27
2019-02-06T16:33:04.427Z,9.47
2019-02-06T16:36:10.140Z,9.40
2019-02-06T16:39:02.158Z,9.30
2019-02-06T16:42:02.448Z,9.20
2019-02-06T16:44:42.478Z,10.40
2019-02-06T16:47:28.178Z,10.37
2019-02-06T16:50:08.095Z,9.27
2019-02-06T16:53:08.660Z,11.10
2019-02-06T16:56:09.654Z,10.87
2019-02-06T16:59:23.527Z,10.47
2019-02-06T17:02:19.918Z,11.37
2019-02-06T17:05:14.610Z,11.10
2019-02-06T17:08:07.847Z,13.97
2019-02-06T17:11:03.977Z,13.97
2019-02-06T17:14:08.772Z,10.57
2019-02-06T17:17:03.504Z,11.20
2019-02-06T17:19:46.529Z,24.10
2019-02-06T17:22:26.458Z,26.53
2019-02-06T17:25:24.403Z,24.77
2019-02-06T17:28:13.487Z,27.23
2019-02-06T17:31:19.451Z,23.00
2019-02-06T17:34:11.642Z,23.63
2019-02-06T17:36:51.516Z,20.30
2019-02-06T17:39:45.323Z,17.30
2019-02-06T17:42:52.695Z,19.03
2019-02-06T17:45:48.157Z,17.30
2019-02-06T17:48:30.937Z,15.80
2019-02-06T17:51:33.355Z,18.20
2019-02-06T17:54:13.369Z,15.77
2019-02-06T17:56:42.681Z,16.27
2019-02-06T17:59:11.971Z,16.13
2019-02-06T18:01:41.286Z,16.53
2019-02-06T18:04:10.650Z,16.47
2019-02-06T18:06:40.010Z,15.60
2019-02-06T18:09:12.950Z,18.40
2019-02-06T18:11:42.339Z,18.63
2019-02-06T18:14:11.658Z,20.23
2019-02-06T18:16:41.049Z,19.27
2019-02-06T18:19:10.337Z,21.30
2019-02-06T18:21:39.659Z,19.17
2019-02-06T18:24:09.435Z,18.70
2019-02-06T18:26:42.052Z,20.13
2019-02-06T18:29:11.375Z,19.17
2019-02-06T18:31:40.734Z,19.77
2019-02-06T18:34:10.263Z,16.00
2019-02-06T18:36:39.617Z,19.23
2019-02-06T18:39:10.834Z,19.47
2019-02-06T18:41:40.478Z,19.63
2019-02-06T18:44:09.930Z,20.93
2019-02-06T18:46:39.424Z,18.93
2019-02-06T18:49:08.818Z,19.90
2019-02-06T18:51:38.112Z,19.97
2019-02-06T18:54:07.635Z,17.50
2019-02-06T18:56:36.925Z,15.60
2019-02-06T18:59:06.831Z,15.80
2019-02-06T19:01:36.127Z,16.93
2019-02-06T19:04:06.196Z,15.40
2019-02-06T19:06:35.600Z,14.00
2019-02-06T19:09:07.990Z,15.23
2019-02-06T19:11:37.285Z,14.90
2019-02-06T19:14:06.849Z,15.67
2019-02-06T19:16:36.446Z,14.27
2019-02-06T19:19:05.817Z,14.43
2019-02-06T19:21:35.185Z,15.70
2019-02-06T19:24:04.684Z,15.40
2019-02-06T19:26:33.982Z,12.57
2019-02-06T19:29:03.384Z,12.77
2019-02-06T19:31:32.823Z,13.83
2019-02-06T19:34:02.665Z,14.50
2019-02-06T19:36:31.994Z,13.97
2019-02-06T19:39:01.392Z,14.73
2019-02-06T19:41:30.692Z,13.80
2019-02-06T19:44:00.847Z,14.40
2019-02-06T19:46:30.186Z,13.70
2019-02-06T19:48:59.548Z,15.20
2019-02-06T19:51:29.146Z,15.03
2019-02-06T19:53:58.446Z,14.97
2019-02-06T19:56:27.780Z,15.30
2019-02-06T19:58:57.077Z,17.00
2019-02-06T20:01:26.404Z,24.03
2019-02-06T20:03:55.700Z,22.97
2019-02-06T20:06:30.817Z,20.93
2019-02-06T20:09:00.252Z,21.90
2019-02-06T20:11:29.652Z,24.83
2019-02-06T20:13:58.968Z,24.10
2019-02-06T20:16:28.260Z,20.33
2019-02-06T20:18:57.588Z,19.43
2019-02-06T20:21:26.957Z,17.63
2019-02-06T20:23:56.282Z,20.40
2019-02-06T20:26:25.577Z,14.83
2019-02-06T20:28:54.978Z,14.23
2019-02-06T20:31:24.350Z,13.80
2019-02-06T20:33:53.678Z,16.43
2019-02-06T20:36:23.047Z,16.47
2019-02-06T20:38:52.371Z,15.83
2019-02-06T20:41:22.148Z,14.40
2019-02-06T20:43:51.473Z,13.57
2019-02-06T20:46:20.800Z,15.33
2019-02-06T20:48:50.098Z,15.23
2019-02-06T20:51:19.600Z,15.37
2019-02-06T20:53:48.959Z,15.30
2019-02-06T20:56:18.285Z,15.27
2019-02-06T20:58:48.063Z,15.17
2019-02-06T21:01:17.382Z,15.73
2019-02-06T21:03:46.705Z,13.60
2019-02-06T21:06:16.075Z,14.60
2019-02-06T21:08:45.401Z,15.40
2019-02-06T21:11:14.868Z,15.87
2019-02-06T21:13:44.175Z,14.83
2019-02-06T21:16:13.495Z,13.50
2019-02-06T21:18:42.860Z,14.43
2019-02-06T21:21:12.182Z,15.20
2019-02-06T21:23:41.485Z,15.40
2019-02-06T21:26:10.809Z,15.57
2019-02-06T21:28:40.246Z,13.17
2019-02-06T21:31:09.676Z,13.77
2019-02-06T21:33:38.977Z,15.70
2019-02-06T21:36:08.311Z,15.13
2019-02-06T21:38:37.610Z,15.13
2019-02-06T21:41:06.980Z,17.07
2019-02-06T21:43:43.880Z,16.57
2019-02-06T21:46:07.473Z,16.10
2019-02-06T21:48:36.940Z,16.53
2019-02-06T21:51:06.306Z,17.97
2019-02-06T21:53:35.635Z,15.07
2019-02-06T21:56:05.000Z,13.60
2019-02-06T21:58:34.457Z,14.63
2019-02-06T22:01:03.829Z,13.93
2019-02-06T22:03:33.225Z,11.17
2019-02-06T22:06:02.526Z,11.10
2019-02-06T22:08:31.824Z,13.40
2019-02-06T22:11:01.151Z,13.63
2019-02-06T22:13:30.453Z,16.70
2019-02-06T22:15:59.846Z,16.40
2019-02-06T22:18:29.174Z,14.03
2019-02-06T22:20:58.844Z,15.13
2019-02-06T22:23:28.172Z,15.37
2019-02-06T22:25:57.499Z,18.10
2019-02-06T22:28:26.868Z,15.13
2019-02-06T22:30:56.260Z,15.57
2019-02-06T22:33:25.652Z,14.27
2019-02-06T22:35:54.980Z,17.00
2019-02-06T22:38:24.374Z,14.13
2019-02-06T22:40:53.665Z,16.03
2019-02-06T22:43:23.131Z,16.30
2019-02-06T22:45:52.457Z,15.10
2019-02-06T22:48:21.757Z,15.70
2019-02-06T22:50:51.156Z,12.73
2019-02-06T22:53:20.536Z,13.50
2019-02-06T22:55:49.908Z,15.87
2019-02-06T22:58:19.229Z,15.43
2019-02-06T23:00:55.074Z,15.67
2019-02-06T23:03:29.256Z,15.73
2019-02-06T23:05:58.633Z,12.00
2019-02-06T23:08:27.962Z,13.77
2019-02-06T23:10:57.668Z,14.17
2019-02-06T23:13:26.967Z,14.30
2019-02-06T23:15:56.294Z,12.90
2019-02-06T23:18:25.690Z,11.67
2019-02-06T23:20:55.057Z,14.07
2019-02-06T23:23:24.500Z,16.57
2019-02-06T23:25:54.173Z,13.87
2019-02-06T23:28:23.498Z,9.07
2019-02-06T23:30:52.869Z,13.40
2019-02-06T23:33:22.203Z,12.73
2019-02-06T23:35:51.505Z,11.77
2019-02-06T23:38:20.831Z,12.60
2019-02-06T23:40:50.505Z,13.13
2019-02-06T23:43:19.877Z,12.10
2019-02-06T23:45:49.204Z,13.10
2019-02-06T23:48:18.568Z,14.00
2019-02-06T23:50:47.865Z,12.67
2019-02-06T23:53:17.258Z,14.03
2019-02-06T23:55:46.909Z,11.27
2019-02-06T23:58:16.233Z,11.73
